Aviation Digital Data Service (ADDS)

Output produced by METARs form (2114 UTC 23 April 2018)
found at http://aviationweather.gov/adds/metars/
 
KGLS 231721Z 2318/2418 30010KT P6SM FEW250